Hanover, Illinois
Current Conditions -  °F | °C
As of 7:35 AM on Wednesday 22 Oct 2014 (Local Time) from KSFY Reporting Station
Haze Haze  
Wind Chill: 28°   Ceiling: Unl
Heat Index: 33°   Visibility: 5mi
Dew Point: 32°   Wind: 6mph
Humidity: 95%   Direction: 60°ENE
Pressure: 30.34"   Gusts: NA
Location:  42.26°N, 90.28°W
Report Text: KSFY 221235Z AUTO 06005KT 5SM BR CLR 01/00 A3034 RMK AO2 T00070000
Loading
Personal Weather Stations






























Interactive Weather Map New forecast layout! Learn more

10-Day Weather Forecast

Advertisements
Track Severe Weather on mobile